This is the latest recevied weather packets stored in our database for station/object K4IR. If no packets are shown the sender has not sent any weather packets the latest 10 day(s).
| Time | Temp. | Humidity | Pressure | Rain* | Wind** | Luminosity | Snow |
|---|---|---|---|---|---|---|---|
| 1787685190 | 31.67° C | 52% | 1016.4 hPa | 0 mm | - | 383 W/m² | - |
| 1787684586 | 31.67° C | 55% | 1016.5 hPa | 0 mm | - | 561 W/m² | - |
| 1787683983 | 31.67° C | 52% | 1016.6 hPa | 0 mm | - | 386 W/m² | - |
| 1787683382 | 31.67° C | 48% | 1016.5 hPa | 0 mm | - | 680 W/m² | - |
| 1787682781 | 31.11° C | 50% | 1016.6 hPa | 0 mm | - | 461 W/m² | - |
| 1787682178 | 31.67° C | 49% | 1016.6 hPa | 0 mm | - | 552 W/m² | - |
| 1787681573 | 31.67° C | 49% | 1016.5 hPa | 0 mm | - | 744 W/m² | - |
| 1787680970 | 31.67° C | 53% | 1017 hPa | 0 mm | - | 463 W/m² | - |
| 1787680368 | 32.22° C | 50% | 1016.9 hPa | 0 mm | - | 524 W/m² | - |
| 1787679767 | 31.67° C | 50% | 1016.8 hPa | 0 mm | - | 507 W/m² | - |
| 1787679164 | 31.67° C | 49% | 1017.2 hPa | 0 mm | - | 722 W/m² | - |
| 1787678563 | 31.67° C | 51% | 1017.4 hPa | 0 mm | - | 793 W/m² | - |
| 1787677959 | 31.11° C | 57% | 1017.5 hPa | 0 mm | - | 840 W/m² | - |
| 1787677358 | 31.67° C | 54% | 1017.4 hPa | 0 mm | - | 741 W/m² | - |
| 1787676754 | 31.67° C | 58% | 1017.1 hPa | 0 mm | - | 740 W/m² | - |
| 1787676152 | 31.11° C | 59% | 1017.2 hPa | 0 mm | - | 744 W/m² | - |
| 1787675549 | 30.56° C | 60% | 1017.7 hPa | 0 mm | - | 749 W/m² | - |
| 1787674947 | 30.56° C | 61% | 1017.5 hPa | 0 mm | - | 726 W/m² | - |
| 1787674345 | 30° C | 62% | 1017.6 hPa | 0 mm | - | 747 W/m² | - |
| 1787673740 | 29.44° C | 68% | 1017.6 hPa | 0 mm | - | 705 W/m² | - |
| 1787673141 | 29.44° C | 66% | 1017.8 hPa | 0 mm | - | 621 W/m² | - |
| 1787672537 | 28.89° C | 67% | 1018 hPa | 0 mm | - | 664 W/m² | - |
| 1787671935 | 28.33° C | 69% | 1018.2 hPa | 0 mm | - | 101 W/m² | - |
| 1787671331 | 27.78° C | 70% | 1017.9 hPa | 0 mm | - | 144 W/m² | - |
| 1787670728 | 27.22° C | 72% | 1017.9 hPa | 0 mm | - | 214 W/m² | - |
* Rain latest hour (hover to see other rain measurements)
** Current wind speed in m/s (hover to see current wind gust speed)